sensor_id;sensor_type;location;lat;lon;timestamp;temperature;humidity
14769;DHT22;7476;49.404;11.152;2023-09-19T00:00:20;15.00;99.90
14769;DHT22;7476;49.404;11.152;2023-09-19T00:02:53;14.90;99.90
14769;DHT22;7476;49.404;11.152;2023-09-19T00:05:20;15.00;99.90
14769;DHT22;7476;49.404;11.152;2023-09-19T00:07:50;15.00;99.90
14769;DHT22;7476;49.404;11.152;2023-09-19T00:10:19;14.80;99.90
14769;DHT22;7476;49.404;11.152;2023-09-19T00:12:47;14.70;99.90
14769;DHT22;7476;49.404;11.152;2023-09-19T00:15:14;14.70;99.90
14769;DHT22;7476;49.404;11.152;2023-09-19T00:17:43;14.80;99.90
14769;DHT22;7476;49.404;11.152;2023-09-19T00:20:11;14.90;99.90
14769;DHT22;7476;49.404;11.152;2023-09-19T00:22:42;14.90;99.90
14769;DHT22;7476;49.404;11.152;2023-09-19T00:25:09;14.90;99.90
14769;DHT22;7476;49.404;11.152;2023-09-19T00:27:37;14.90;99.90
14769;DHT22;7476;49.404;11.152;2023-09-19T00:30:08;15.00;99.90
14769;DHT22;7476;49.404;11.152;2023-09-19T00:32:40;15.00;99.90
14769;DHT22;7476;49.404;11.152;2023-09-19T00:35:07;15.00;99.90
14769;DHT22;7476;49.404;11.152;2023-09-19T00:37:36;15.10;99.90
14769;DHT22;7476;49.404;11.152;2023-09-19T00:40:03;15.10;99.90
14769;DHT22;7476;49.404;11.152;2023-09-19T00:42:31;15.00;99.90
14769;DHT22;7476;49.404;11.152;2023-09-19T00:44:59;15.00;99.90
14769;DHT22;7476;49.404;11.152;2023-09-19T00:47:28;14.90;99.90
14769;DHT22;7476;49.404;11.152;2023-09-19T00:49:56;14.90;99.90
14769;DHT22;7476;49.404;11.152;2023-09-19T00:52:23;14.80;99.90
14769;DHT22;7476;49.404;11.152;2023-09-19T00:54:51;14.80;99.90
14769;DHT22;7476;49.404;11.152;2023-09-19T00:57:18;14.90;99.90
14769;DHT22;7476;49.404;11.152;2023-09-19T00:59:46;14.90;99.90
14769;DHT22;7476;49.404;11.152;2023-09-19T01:02:16;14.80;99.90
14769;DHT22;7476;49.404;11.152;2023-09-19T01:04:43;14.70;99.90
14769;DHT22;7476;49.404;11.152;2023-09-19T01:07:10;14.70;99.90
14769;DHT22;7476;49.404;11.152;2023-09-19T01:09:37;14.50;99.90
14769;DHT22;7476;49.404;11.152;2023-09-19T01:12:07;14.40;99.90
14769;DHT22;7476;49.404;11.152;2023-09-19T01:14:41;14.20;99.90
14769;DHT22;7476;49.404;11.152;2023-09-19T01:17:16;14.30;99.90
14769;DHT22;7476;49.404;11.152;2023-09-19T01:20:11;14.30;99.90
14769;DHT22;7476;49.404;11.152;2023-09-19T01:22:46;14.20;99.90
14769;DHT22;7476;49.404;11.152;2023-09-19T01:28:31;14.20;99.90
14769;DHT22;7476;49.404;11.152;2023-09-19T01:31:03;14.30;99.90
14769;DHT22;7476;49.404;11.152;2023-09-19T01:33:55;14.30;99.90
14769;DHT22;7476;49.404;11.152;2023-09-19T01:36:25;14.30;99.90
14769;DHT22;7476;49.404;11.152;2023-09-19T01:38:53;14.40;99.90
14769;DHT22;7476;49.404;11.152;2023-09-19T01:41:27;14.40;99.90
14769;DHT22;7476;49.404;11.152;2023-09-19T01:43:58;14.40;99.90
14769;DHT22;7476;49.404;11.152;2023-09-19T01:46:31;14.50;99.90
14769;DHT22;7476;49.404;11.152;2023-09-19T01:49:07;14.50;99.90
14769;DHT22;7476;49.404;11.152;2023-09-19T01:51:46;14.60;99.90
14769;DHT22;7476;49.404;11.152;2023-09-19T01:54:25;14.50;99.90
14769;DHT22;7476;49.404;11.152;2023-09-19T01:56:59;14.60;99.90
14769;DHT22;7476;49.404;11.152;2023-09-19T01:59:35;14.50;99.90
14769;DHT22;7476;49.404;11.152;2023-09-19T02:02:07;14.50;99.90
14769;DHT22;7476;49.404;11.152;2023-09-19T02:04:35;14.60;99.90
14769;DHT22;7476;49.404;11.152;2023-09-19T02:07:02;14.60;99.90
14769;DHT22;7476;49.404;11.152;2023-09-19T02:09:31;14.60;99.90
14769;DHT22;7476;49.404;11.152;2023-09-19T02:11:58;14.60;99.90
14769;DHT22;7476;49.404;11.152;2023-09-19T02:14:25;14.70;99.90
14769;DHT22;7476;49.404;11.152;2023-09-19T02:16:52;14.70;99.90
14769;DHT22;7476;49.404;11.152;2023-09-19T02:19:20;14.70;99.90
14769;DHT22;7476;49.404;11.152;2023-09-19T02:21:47;14.60;99.90
14769;DHT22;7476;49.404;11.152;2023-09-19T02:24:15;14.60;99.90
14769;DHT22;7476;49.404;11.152;2023-09-19T02:26:42;14.60;99.90
14769;DHT22;7476;49.404;11.152;2023-09-19T02:29:09;14.60;99.90
14769;DHT22;7476;49.404;11.152;2023-09-19T02:31:38;14.60;99.90
14769;DHT22;7476;49.404;11.152;2023-09-19T02:34:05;14.60;99.90
14769;DHT22;7476;49.404;11.152;2023-09-19T02:36:33;14.60;99.90
14769;DHT22;7476;49.404;11.152;2023-09-19T02:39:00;14.60;99.90
14769;DHT22;7476;49.404;11.152;2023-09-19T02:41:26;14.60;99.90
14769;DHT22;7476;49.404;11.152;2023-09-19T02:43:54;14.60;99.90
14769;DHT22;7476;49.404;11.152;2023-09-19T02:46:22;14.60;99.90
14769;DHT22;7476;49.404;11.152;2023-09-19T02:48:49;14.60;99.90
14769;DHT22;7476;49.404;11.152;2023-09-19T02:51:15;14.60;99.90
14769;DHT22;7476;49.404;11.152;2023-09-19T02:53:43;14.60;99.90
14769;DHT22;7476;49.404;11.152;2023-09-19T02:56:13;14.60;99.90
14769;DHT22;7476;49.404;11.152;2023-09-19T02:58:41;14.70;99.90
14769;DHT22;7476;49.404;11.152;2023-09-19T03:01:08;14.80;99.90
14769;DHT22;7476;49.404;11.152;2023-09-19T03:03:36;14.80;99.90
14769;DHT22;7476;49.404;11.152;2023-09-19T03:06:04;14.80;99.90
14769;DHT22;7476;49.404;11.152;2023-09-19T03:08:33;14.80;99.90
14769;DHT22;7476;49.404;11.152;2023-09-19T03:11:03;14.80;99.90
14769;DHT22;7476;49.404;11.152;2023-09-19T03:13:31;14.80;99.90
14769;DHT22;7476;49.404;11.152;2023-09-19T03:15:58;14.80;99.90
14769;DHT22;7476;49.404;11.152;2023-09-19T03:18:24;14.80;99.90
14769;DHT22;7476;49.404;11.152;2023-09-19T03:20:55;14.70;99.90
14769;DHT22;7476;49.404;11.152;2023-09-19T03:23:22;14.70;99.90
14769;DHT22;7476;49.404;11.152;2023-09-19T03:25:49;14.70;99.90
14769;DHT22;7476;49.404;11.152;2023-09-19T03:28:17;14.70;99.90
14769;DHT22;7476;49.404;11.152;2023-09-19T03:30:43;14.70;99.90
14769;DHT22;7476;49.404;11.152;2023-09-19T03:33:11;14.80;99.90
14769;DHT22;7476;49.404;11.152;2023-09-19T03:35:39;14.70;99.90
14769;DHT22;7476;49.404;11.152;2023-09-19T03:38:06;14.70;99.90
14769;DHT22;7476;49.404;11.152;2023-09-19T03:40:33;14.60;99.90
14769;DHT22;7476;49.404;11.152;2023-09-19T03:43:00;14.50;99.90
14769;DHT22;7476;49.404;11.152;2023-09-19T03:45:28;14.60;99.90
14769;DHT22;7476;49.404;11.152;2023-09-19T03:47:55;14.60;99.90
14769;DHT22;7476;49.404;11.152;2023-09-19T03:50:22;14.50;99.90
14769;DHT22;7476;49.404;11.152;2023-09-19T03:52:49;14.50;99.90
14769;DHT22;7476;49.404;11.152;2023-09-19T03:55:16;14.50;99.90
14769;DHT22;7476;49.404;11.152;2023-09-19T03:57:47;14.50;99.90
14769;DHT22;7476;49.404;11.152;2023-09-19T04:00:14;14.50;99.90
14769;DHT22;7476;49.404;11.152;2023-09-19T04:02:47;14.50;99.90
14769;DHT22;7476;49.404;11.152;2023-09-19T04:05:14;14.40;99.90
14769;DHT22;7476;49.404;11.152;2023-09-19T04:07:41;14.30;99.90
14769;DHT22;7476;49.404;11.152;2023-09-19T04:10:09;14.30;99.90
14769;DHT22;7476;49.404;11.152;2023-09-19T04:12:37;14.20;99.90
14769;DHT22;7476;49.404;11.152;2023-09-19T04:15:04;14.20;99.90
14769;DHT22;7476;49.404;11.152;2023-09-19T04:17:31;14.30;99.90
14769;DHT22;7476;49.404;11.152;2023-09-19T04:20:00;14.40;99.90
14769;DHT22;7476;49.404;11.152;2023-09-19T04:22:26;14.40;99.90
14769;DHT22;7476;49.404;11.152;2023-09-19T04:24:53;14.50;99.90
14769;DHT22;7476;49.404;11.152;2023-09-19T04:27:20;14.50;99.90
14769;DHT22;7476;49.404;11.152;2023-09-19T04:29:46;14.50;99.90
14769;DHT22;7476;49.404;11.152;2023-09-19T04:32:13;14.50;99.90
14769;DHT22;7476;49.404;11.152;2023-09-19T04:34:41;14.30;99.90
14769;DHT22;7476;49.404;11.152;2023-09-19T04:37:09;14.20;99.90
14769;DHT22;7476;49.404;11.152;2023-09-19T04:39:36;14.30;99.90
14769;DHT22;7476;49.404;11.152;2023-09-19T04:42:04;14.30;99.90
14769;DHT22;7476;49.404;11.152;2023-09-19T04:44:31;14.40;99.90
14769;DHT22;7476;49.404;11.152;2023-09-19T04:46:58;14.50;99.90
14769;DHT22;7476;49.404;11.152;2023-09-19T04:49:25;14.50;99.90
14769;DHT22;7476;49.404;11.152;2023-09-19T04:51:51;14.50;99.90
14769;DHT22;7476;49.404;11.152;2023-09-19T04:54:20;14.60;99.90
14769;DHT22;7476;49.404;11.152;2023-09-19T04:56:47;14.60;99.90
14769;DHT22;7476;49.404;11.152;2023-09-19T04:59:14;14.70;99.90
14769;DHT22;7476;49.404;11.152;2023-09-19T05:01:41;14.70;99.90
14769;DHT22;7476;49.404;11.152;2023-09-19T05:04:07;14.70;99.90
14769;DHT22;7476;49.404;11.152;2023-09-19T05:06:33;14.80;99.90
14769;DHT22;7476;49.404;11.152;2023-09-19T05:09:01;14.80;99.90
14769;DHT22;7476;49.404;11.152;2023-09-19T05:11:32;14.80;99.90
14769;DHT22;7476;49.404;11.152;2023-09-19T05:13:59;14.80;99.90
14769;DHT22;7476;49.404;11.152;2023-09-19T05:16:29;14.80;99.90
14769;DHT22;7476;49.404;11.152;2023-09-19T05:18:56;14.80;99.90
14769;DHT22;7476;49.404;11.152;2023-09-19T05:21:23;14.90;99.90
14769;DHT22;7476;49.404;11.152;2023-09-19T05:23:51;14.90;99.90
14769;DHT22;7476;49.404;11.152;2023-09-19T05:26:18;14.90;99.90
14769;DHT22;7476;49.404;11.152;2023-09-19T05:28:46;14.90;99.90
14769;DHT22;7476;49.404;11.152;2023-09-19T05:31:13;14.90;99.90
14769;DHT22;7476;49.404;11.152;2023-09-19T05:33:41;14.90;99.90
14769;DHT22;7476;49.404;11.152;2023-09-19T05:36:08;14.90;99.90
14769;DHT22;7476;49.404;11.152;2023-09-19T05:38:36;15.00;99.90
14769;DHT22;7476;49.404;11.152;2023-09-19T05:41:06;15.00;99.90
14769;DHT22;7476;49.404;11.152;2023-09-19T05:43:33;15.10;99.90
14769;DHT22;7476;49.404;11.152;2023-09-19T05:46:04;15.10;99.90
14769;DHT22;7476;49.404;11.152;2023-09-19T05:48:31;15.20;99.90
14769;DHT22;7476;49.404;11.152;2023-09-19T05:50:58;15.20;99.90
14769;DHT22;7476;49.404;11.152;2023-09-19T05:53:26;15.20;99.90
14769;DHT22;7476;49.404;11.152;2023-09-19T05:55:54;15.20;99.90
14769;DHT22;7476;49.404;11.152;2023-09-19T05:58:21;15.30;99.90
14769;DHT22;7476;49.404;11.152;2023-09-19T06:00:47;15.30;99.90
14769;DHT22;7476;49.404;11.152;2023-09-19T06:03:16;15.40;99.90
14769;DHT22;7476;49.404;11.152;2023-09-19T06:05:44;15.50;99.90
14769;DHT22;7476;49.404;11.152;2023-09-19T06:08:11;15.50;99.90
14769;DHT22;7476;49.404;11.152;2023-09-19T06:10:38;15.50;99.90
14769;DHT22;7476;49.404;11.152;2023-09-19T06:13:05;15.60;99.90
14769;DHT22;7476;49.404;11.152;2023-09-19T06:15:35;15.70;99.90
14769;DHT22;7476;49.404;11.152;2023-09-19T06:18:02;15.70;99.90
14769;DHT22;7476;49.404;11.152;2023-09-19T06:20:31;15.80;99.90
14769;DHT22;7476;49.404;11.152;2023-09-19T06:22:58;15.90;99.90
14769;DHT22;7476;49.404;11.152;2023-09-19T06:25:27;16.00;99.90
14769;DHT22;7476;49.404;11.152;2023-09-19T06:27:54;16.20;99.90
14769;DHT22;7476;49.404;11.152;2023-09-19T06:30:22;16.30;99.90
14769;DHT22;7476;49.404;11.152;2023-09-19T06:32:49;16.40;99.90
14769;DHT22;7476;49.404;11.152;2023-09-19T06:35:21;16.60;99.90
14769;DHT22;7476;49.404;11.152;2023-09-19T06:37:49;16.70;99.90
14769;DHT22;7476;49.404;11.152;2023-09-19T06:40:16;16.90;99.90
14769;DHT22;7476;49.404;11.152;2023-09-19T06:42:44;17.30;99.90
14769;DHT22;7476;49.404;11.152;2023-09-19T06:45:12;17.40;99.90
14769;DHT22;7476;49.404;11.152;2023-09-19T06:47:43;17.70;99.90
14769;DHT22;7476;49.404;11.152;2023-09-19T06:50:10;18.20;99.90
14769;DHT22;7476;49.404;11.152;2023-09-19T06:52:39;19.00;99.90
14769;DHT22;7476;49.404;11.152;2023-09-19T06:55:07;19.50;99.90
14769;DHT22;7476;49.404;11.152;2023-09-19T06:57:35;20.00;88.50
14769;DHT22;7476;49.404;11.152;2023-09-19T07:00:02;20.10;42.50
14769;DHT22;7476;49.404;11.152;2023-09-19T07:02:34;20.30;25.80
14769;DHT22;7476;49.404;11.152;2023-09-19T07:05:00;20.60;10.10
14769;DHT22;7476;49.404;11.152;2023-09-19T07:07:27;20.90;1.00
14769;DHT22;7476;49.404;11.152;2023-09-19T07:09:54;20.90;1.00
14769;DHT22;7476;49.404;11.152;2023-09-19T07:12:23;21.20;1.00
14769;DHT22;7476;49.404;11.152;2023-09-19T07:14:50;20.90;1.00
14769;DHT22;7476;49.404;11.152;2023-09-19T07:17:17;20.70;1.00
14769;DHT22;7476;49.404;11.152;2023-09-19T07:19:44;20.40;1.00
14769;DHT22;7476;49.404;11.152;2023-09-19T07:22:11;20.50;1.00
14769;DHT22;7476;49.404;11.152;2023-09-19T07:24:38;20.60;1.00
14769;DHT22;7476;49.404;11.152;2023-09-19T07:27:05;20.90;1.00
14769;DHT22;7476;49.404;11.152;2023-09-19T07:29:33;21.10;1.00
14769;DHT22;7476;49.404;11.152;2023-09-19T07:32:00;20.70;1.00
14769;DHT22;7476;49.404;11.152;2023-09-19T07:34:26;20.60;1.00
14769;DHT22;7476;49.404;11.152;2023-09-19T07:36:53;21.00;1.00
14769;DHT22;7476;49.404;11.152;2023-09-19T07:39:20;21.10;1.00
14769;DHT22;7476;49.404;11.152;2023-09-19T07:41:47;21.00;1.00
14769;DHT22;7476;49.404;11.152;2023-09-19T07:44:14;20.70;1.00
14769;DHT22;7476;49.404;11.152;2023-09-19T07:46:42;20.30;1.00
14769;DHT22;7476;49.404;11.152;2023-09-19T07:49:09;19.90;1.00
14769;DHT22;7476;49.404;11.152;2023-09-19T07:51:36;19.60;1.00
14769;DHT22;7476;49.404;11.152;2023-09-19T07:54:04;19.50;1.00
14769;DHT22;7476;49.404;11.152;2023-09-19T07:56:31;19.30;1.00
14769;DHT22;7476;49.404;11.152;2023-09-19T07:58:59;19.20;1.00
14769;DHT22;7476;49.404;11.152;2023-09-19T08:01:26;19.10;1.00
14769;DHT22;7476;49.404;11.152;2023-09-19T08:03:54;19.10;1.00
14769;DHT22;7476;49.404;11.152;2023-09-19T08:06:21;19.00;1.00
14769;DHT22;7476;49.404;11.152;2023-09-19T08:08:50;19.10;1.00
14769;DHT22;7476;49.404;11.152;2023-09-19T08:11:19;19.20;1.00
14769;DHT22;7476;49.404;11.152;2023-09-19T08:13:46;19.40;1.00
14769;DHT22;7476;49.404;11.152;2023-09-19T08:16:14;19.80;1.00
14769;DHT22;7476;49.404;11.152;2023-09-19T08:18:41;20.30;1.00
14769;DHT22;7476;49.404;11.152;2023-09-19T08:21:11;20.50;1.00
14769;DHT22;7476;49.404;11.152;2023-09-19T08:23:41;20.60;1.00
14769;DHT22;7476;49.404;11.152;2023-09-19T08:26:08;20.80;1.00
14769;DHT22;7476;49.404;11.152;2023-09-19T08:28:35;21.00;99.90
14769;DHT22;7476;49.404;11.152;2023-09-19T08:31:02;21.10;99.90
14769;DHT22;7476;49.404;11.152;2023-09-19T08:33:31;21.00;68.30
14769;DHT22;7476;49.404;11.152;2023-09-19T08:35:58;20.90;51.50
14769;DHT22;7476;49.404;11.152;2023-09-19T08:38:26;21.00;19.20
14769;DHT22;7476;49.404;11.152;2023-09-19T08:40:57;21.40;1.00
14769;DHT22;7476;49.404;11.152;2023-09-19T08:43:24;21.60;1.00
14769;DHT22;7476;49.404;11.152;2023-09-19T08:45:52;21.60;99.90
14769;DHT22;7476;49.404;11.152;2023-09-19T08:48:23;21.40;1.00
14769;DHT22;7476;49.404;11.152;2023-09-19T08:50:53;21.40;99.90
14769;DHT22;7476;49.404;11.152;2023-09-19T08:53:33;21.20;99.90
14769;DHT22;7476;49.404;11.152;2023-09-19T08:56:03;21.10;1.00
14769;DHT22;7476;49.404;11.152;2023-09-19T08:58:44;20.80;1.00
14769;DHT22;7476;49.404;11.152;2023-09-19T09:01:15;20.60;1.00
14769;DHT22;7476;49.404;11.152;2023-09-19T09:03:43;20.40;99.90
14769;DHT22;7476;49.404;11.152;2023-09-19T09:06:14;20.50;99.90
14769;DHT22;7476;49.404;11.152;2023-09-19T09:08:43;20.60;99.90
14769;DHT22;7476;49.404;11.152;2023-09-19T09:11:11;20.70;60.30
14769;DHT22;7476;49.404;11.152;2023-09-19T09:13:38;20.90;1.00
14769;DHT22;7476;49.404;11.152;2023-09-19T09:16:07;21.00;1.00
14769;DHT22;7476;49.404;11.152;2023-09-19T09:18:34;20.70;99.90
14769;DHT22;7476;49.404;11.152;2023-09-19T09:21:00;20.40;1.00
14769;DHT22;7476;49.404;11.152;2023-09-19T09:23:27;20.50;1.00
14769;DHT22;7476;49.404;11.152;2023-09-19T09:25:57;20.40;46.60
14769;DHT22;7476;49.404;11.152;2023-09-19T09:28:26;20.30;1.00
14769;DHT22;7476;49.404;11.152;2023-09-19T09:30:54;20.30;99.90
14769;DHT22;7476;49.404;11.152;2023-09-19T09:33:21;20.40;1.00
14769;DHT22;7476;49.404;11.152;2023-09-19T09:35:50;20.30;1.00
14769;DHT22;7476;49.404;11.152;2023-09-19T09:38:23;20.20;1.00
14769;DHT22;7476;49.404;11.152;2023-09-19T09:40:54;20.20;99.90
14769;DHT22;7476;49.404;11.152;2023-09-19T09:43:29;20.20;99.90
14769;DHT22;7476;49.404;11.152;2023-09-19T09:46:07;20.40;1.00
14769;DHT22;7476;49.404;11.152;2023-09-19T09:48:59;20.60;63.70
14769;DHT22;7476;49.404;11.152;2023-09-19T09:51:44;20.70;1.00
14769;DHT22;7476;49.404;11.152;2023-09-19T09:54:15;20.80;16.20
14769;DHT22;7476;49.404;11.152;2023-09-19T09:56:56;21.00;1.00
14769;DHT22;7476;49.404;11.152;2023-09-19T09:59:46;21.30;1.00
14769;DHT22;7476;49.404;11.152;2023-09-19T10:02:13;21.60;99.90
14769;DHT22;7476;49.404;11.152;2023-09-19T10:04:46;21.70;1.00
14769;DHT22;7476;49.404;11.152;2023-09-19T10:07:25;21.70;1.00
14769;DHT22;7476;49.404;11.152;2023-09-19T10:09:57;21.60;1.00
14769;DHT22;7476;49.404;11.152;2023-09-19T10:12:32;21.60;1.00
14769;DHT22;7476;49.404;11.152;2023-09-19T10:15:02;21.30;99.90
14769;DHT22;7476;49.404;11.152;2023-09-19T10:17:34;21.60;1.00
14769;DHT22;7476;49.404;11.152;2023-09-19T10:20:03;22.00;52.30
14769;DHT22;7476;49.404;11.152;2023-09-19T10:22:43;22.20;99.90
14769;DHT22;7476;49.404;11.152;2023-09-19T10:25:24;22.20;99.90
14769;DHT22;7476;49.404;11.152;2023-09-19T10:27:52;22.00;1.00
14769;DHT22;7476;49.404;11.152;2023-09-19T10:30:24;21.70;1.00
14769;DHT22;7476;49.404;11.152;2023-09-19T10:32:57;21.80;1.00
14769;DHT22;7476;49.404;11.152;2023-09-19T10:35:25;21.60;1.00
14769;DHT22;7476;49.404;11.152;2023-09-19T10:37:54;21.00;1.00
14769;DHT22;7476;49.404;11.152;2023-09-19T10:40:23;20.70;93.30
14769;DHT22;7476;49.404;11.152;2023-09-19T10:43:00;20.70;1.00
14769;DHT22;7476;49.404;11.152;2023-09-19T10:45:29;20.60;99.90
14769;DHT22;7476;49.404;11.152;2023-09-19T10:47:57;20.60;1.00
14769;DHT22;7476;49.404;11.152;2023-09-19T10:50:24;20.80;1.00
14769;DHT22;7476;49.404;11.152;2023-09-19T10:52:53;21.10;99.90
14769;DHT22;7476;49.404;11.152;2023-09-19T10:55:28;21.00;99.90
14769;DHT22;7476;49.404;11.152;2023-09-19T10:57:55;20.90;1.00
14769;DHT22;7476;49.404;11.152;2023-09-19T11:00:23;21.20;1.00
14769;DHT22;7476;49.404;11.152;2023-09-19T11:03:19;21.60;91.00
14769;DHT22;7476;49.404;11.152;2023-09-19T11:06:01;21.90;1.00
14769;DHT22;7476;49.404;11.152;2023-09-19T11:08:30;21.90;1.00
14769;DHT22;7476;49.404;11.152;2023-09-19T11:10:59;22.00;1.00
14769;DHT22;7476;49.404;11.152;2023-09-19T11:13:29;22.00;99.90
14769;DHT22;7476;49.404;11.152;2023-09-19T11:16:04;21.60;1.00
14769;DHT22;7476;49.404;11.152;2023-09-19T11:18:54;21.30;1.00
14769;DHT22;7476;49.404;11.152;2023-09-19T11:21:40;21.40;1.00
14769;DHT22;7476;49.404;11.152;2023-09-19T11:24:28;21.80;1.00
14769;DHT22;7476;49.404;11.152;2023-09-19T11:27:10;22.60;1.00
14769;DHT22;7476;49.404;11.152;2023-09-19T11:29:37;22.70;1.00
14769;DHT22;7476;49.404;11.152;2023-09-19T11:32:04;22.60;1.00
14769;DHT22;7476;49.404;11.152;2023-09-19T11:34:40;22.40;1.00
14769;DHT22;7476;49.404;11.152;2023-09-19T11:40:10;22.00;22.40
14769;DHT22;7476;49.404;11.152;2023-09-19T11:42:42;22.40;1.00
14769;DHT22;7476;49.404;11.152;2023-09-19T11:48:12;21.70;1.00
14769;DHT22;7476;49.404;11.152;2023-09-19T11:50:42;21.90;1.00
14769;DHT22;7476;49.404;11.152;2023-09-19T11:53:10;22.60;1.00
14769;DHT22;7476;49.404;11.152;2023-09-19T11:55:37;23.00;1.00
14769;DHT22;7476;49.404;11.152;2023-09-19T11:58:04;23.00;1.00
14769;DHT22;7476;49.404;11.152;2023-09-19T12:00:31;22.90;1.00
14769;DHT22;7476;49.404;11.152;2023-09-19T12:03:02;22.90;99.90
14769;DHT22;7476;49.404;11.152;2023-09-19T12:05:33;23.70;1.00
14769;DHT22;7476;49.404;11.152;2023-09-19T12:08:02;23.80;1.00
14769;DHT22;7476;49.404;11.152;2023-09-19T12:10:29;23.90;1.00
14769;DHT22;7476;49.404;11.152;2023-09-19T12:12:57;24.10;1.00
14769;DHT22;7476;49.404;11.152;2023-09-19T12:15:25;24.20;1.00
14769;DHT22;7476;49.404;11.152;2023-09-19T12:17:54;23.90;1.00
14769;DHT22;7476;49.404;11.152;2023-09-19T12:20:21;23.10;1.00
14769;DHT22;7476;49.404;11.152;2023-09-19T12:22:48;22.90;1.00
14769;DHT22;7476;49.404;11.152;2023-09-19T12:25:16;23.10;1.00
14769;DHT22;7476;49.404;11.152;2023-09-19T12:27:47;23.00;1.00
14769;DHT22;7476;49.404;11.152;2023-09-19T12:30:15;23.20;1.00
14769;DHT22;7476;49.404;11.152;2023-09-19T12:32:43;23.80;1.00
14769;DHT22;7476;49.404;11.152;2023-09-19T12:35:10;23.80;1.00
14769;DHT22;7476;49.404;11.152;2023-09-19T12:37:55;23.70;1.00
14769;DHT22;7476;49.404;11.152;2023-09-19T12:40:24;23.60;1.00
14769;DHT22;7476;49.404;11.152;2023-09-19T12:42:53;23.50;1.00
14769;DHT22;7476;49.404;11.152;2023-09-19T12:45:21;23.80;1.00
14769;DHT22;7476;49.404;11.152;2023-09-19T12:48:19;24.50;1.00
14769;DHT22;7476;49.404;11.152;2023-09-19T12:51:03;24.40;1.00
14769;DHT22;7476;49.404;11.152;2023-09-19T12:53:32;23.70;1.00
14769;DHT22;7476;49.404;11.152;2023-09-19T12:56:00;23.10;1.00
14769;DHT22;7476;49.404;11.152;2023-09-19T12:58:28;22.90;1.00
14769;DHT22;7476;49.404;11.152;2023-09-19T13:00:57;23.00;1.00
14769;DHT22;7476;49.404;11.152;2023-09-19T13:03:26;23.50;1.00
14769;DHT22;7476;49.404;11.152;2023-09-19T13:05:55;23.90;1.00
14769;DHT22;7476;49.404;11.152;2023-09-19T13:08:27;24.40;1.00
14769;DHT22;7476;49.404;11.152;2023-09-19T13:11:10;24.50;99.90
14769;DHT22;7476;49.404;11.152;2023-09-19T13:13:40;24.80;1.00
14769;DHT22;7476;49.404;11.152;2023-09-19T13:16:07;24.40;99.90
14769;DHT22;7476;49.404;11.152;2023-09-19T13:18:48;23.90;1.00
14769;DHT22;7476;49.404;11.152;2023-09-19T13:21:27;23.90;1.00
14769;DHT22;7476;49.404;11.152;2023-09-19T13:23:55;23.70;1.00
14769;DHT22;7476;49.404;11.152;2023-09-19T13:26:26;24.10;1.00
14769;DHT22;7476;49.404;11.152;2023-09-19T13:28:53;24.10;1.00
14769;DHT22;7476;49.404;11.152;2023-09-19T13:31:20;24.70;99.90
14769;DHT22;7476;49.404;11.152;2023-09-19T13:33:48;25.90;99.90
14769;DHT22;7476;49.404;11.152;2023-09-19T13:36:15;26.30;99.90
14769;DHT22;7476;49.404;11.152;2023-09-19T13:38:44;25.70;99.90
14769;DHT22;7476;49.404;11.152;2023-09-19T13:41:12;25.50;99.90
14769;DHT22;7476;49.404;11.152;2023-09-19T13:43:40;26.50;99.90
14769;DHT22;7476;49.404;11.152;2023-09-19T13:46:07;26.90;99.90
14769;DHT22;7476;49.404;11.152;2023-09-19T13:48:37;26.80;99.90
14769;DHT22;7476;49.404;11.152;2023-09-19T13:51:04;26.50;99.90
14769;DHT22;7476;49.404;11.152;2023-09-19T13:53:30;26.80;99.90
14769;DHT22;7476;49.404;11.152;2023-09-19T13:55:57;27.30;99.90
14769;DHT22;7476;49.404;11.152;2023-09-19T13:58:24;26.80;99.90
14769;DHT22;7476;49.404;11.152;2023-09-19T14:00:55;26.40;99.90
14769;DHT22;7476;49.404;11.152;2023-09-19T14:03:23;26.90;99.90
14769;DHT22;7476;49.404;11.152;2023-09-19T14:05:50;27.50;99.90
14769;DHT22;7476;49.404;11.152;2023-09-19T14:08:17;28.50;99.90
14769;DHT22;7476;49.404;11.152;2023-09-19T14:10:44;29.20;99.90
14769;DHT22;7476;49.404;11.152;2023-09-19T14:13:11;29.00;99.90
14769;DHT22;7476;49.404;11.152;2023-09-19T14:15:40;27.70;99.90
14769;DHT22;7476;49.404;11.152;2023-09-19T14:18:09;26.50;99.90
14769;DHT22;7476;49.404;11.152;2023-09-19T14:20:38;25.80;99.90
14769;DHT22;7476;49.404;11.152;2023-09-19T14:23:05;26.30;99.90
14769;DHT22;7476;49.404;11.152;2023-09-19T14:25:34;26.70;99.90
14769;DHT22;7476;49.404;11.152;2023-09-19T14:28:01;27.10;99.90
14769;DHT22;7476;49.404;11.152;2023-09-19T14:30:27;27.20;99.90
14769;DHT22;7476;49.404;11.152;2023-09-19T14:32:54;26.90;99.90
14769;DHT22;7476;49.404;11.152;2023-09-19T14:35:22;26.10;99.90
14769;DHT22;7476;49.404;11.152;2023-09-19T14:37:49;25.30;99.90
14769;DHT22;7476;49.404;11.152;2023-09-19T14:40:15;24.20;99.90
14769;DHT22;7476;49.404;11.152;2023-09-19T14:42:43;24.30;99.90
14769;DHT22;7476;49.404;11.152;2023-09-19T14:45:10;25.00;99.90
14769;DHT22;7476;49.404;11.152;2023-09-19T14:47:40;24.90;99.90
14769;DHT22;7476;49.404;11.152;2023-09-19T14:50:07;24.60;99.90
14769;DHT22;7476;49.404;11.152;2023-09-19T14:52:36;24.90;99.90
14769;DHT22;7476;49.404;11.152;2023-09-19T14:55:03;24.50;99.90
14769;DHT22;7476;49.404;11.152;2023-09-19T14:57:31;24.00;99.90
14769;DHT22;7476;49.404;11.152;2023-09-19T14:59:58;23.80;99.90
14769;DHT22;7476;49.404;11.152;2023-09-19T15:02:25;25.40;99.90
14769;DHT22;7476;49.404;11.152;2023-09-19T15:04:52;26.40;99.90
14769;DHT22;7476;49.404;11.152;2023-09-19T15:07:19;26.00;99.90
14769;DHT22;7476;49.404;11.152;2023-09-19T15:09:48;26.70;99.90
14769;DHT22;7476;49.404;11.152;2023-09-19T15:12:15;26.80;99.90
14769;DHT22;7476;49.404;11.152;2023-09-19T15:14:42;27.40;99.90
14769;DHT22;7476;49.404;11.152;2023-09-19T15:17:09;27.30;99.90
14769;DHT22;7476;49.404;11.152;2023-09-19T15:19:35;27.10;99.90
14769;DHT22;7476;49.404;11.152;2023-09-19T15:22:03;26.90;99.90
14769;DHT22;7476;49.404;11.152;2023-09-19T15:24:31;26.50;99.90
14769;DHT22;7476;49.404;11.152;2023-09-19T15:26:59;26.50;99.90
14769;DHT22;7476;49.404;11.152;2023-09-19T15:29:25;26.70;99.90
14769;DHT22;7476;49.404;11.152;2023-09-19T15:31:54;27.50;99.90
14769;DHT22;7476;49.404;11.152;2023-09-19T15:34:22;27.40;99.90
14769;DHT22;7476;49.404;11.152;2023-09-19T15:36:49;27.50;99.90
14769;DHT22;7476;49.404;11.152;2023-09-19T15:39:17;26.80;99.90
14769;DHT22;7476;49.404;11.152;2023-09-19T15:41:45;25.80;99.90
14769;DHT22;7476;49.404;11.152;2023-09-19T15:44:17;25.00;99.90
14769;DHT22;7476;49.404;11.152;2023-09-19T15:46:44;24.40;99.90
14769;DHT22;7476;49.404;11.152;2023-09-19T15:49:11;24.20;99.90
14769;DHT22;7476;49.404;11.152;2023-09-19T15:51:38;24.20;99.90
14769;DHT22;7476;49.404;11.152;2023-09-19T15:54:08;23.50;99.90
14769;DHT22;7476;49.404;11.152;2023-09-19T15:56:36;23.00;99.90